Grasslands, Zimbabwe

3:05 PM CAT on February 19, 2017 (GMT +0200)
Harare International | | Change Station

Elev 4931 ft 17.92 °S, 31.13 °E | Updated 1 hour ago

Rain
Rain
79 °F
Feels Like 79 °F
N
2
Wind Variable Wind from Variable

Today
High -- | Low -- °F
--% Chance of Precip.
Yesterday
High -- | Low -- °F
Precip. -- in
Pressure 30.12 in
Visibility 6.2 miles
Clouds Few 2000 ft
Mostly Cloudy 2500 ft
Dew Point 64 °F
Humidity 61%
Rainfall 0.00 in
Snow Depth Not available.
5:49 AM 6:26 PM
Last Quarter, 43% visible
METAR FVHA 191200Z VRB02KT 9999 FEW020CB BKN025 26/18 Q1020 RESH NOSIG
Pressure 30.12 in
Visibility 6.2 miles
Clouds Few 2000 ft
Mostly Cloudy 2500 ft
Dew Point 64 °F
Humidity 61%
Rainfall 0.00 in
Snow Depth Not available.
5:49 AM 6:26 PM
Last Quarter, 43% visible
METAR FVHA 191200Z VRB02KT 9999 FEW020CB BKN025 26/18 Q1020 RESH NOSIG

Get Your Daily Forecast Email!

Thanks for signing up!

Be on the lookout for a verification email in your inbox.

You'll start receiving the daily forecast at 8 AM.

×

10-Day Weather Forecast

No radar image for this location.
×

Almanac

Astronomy

Feb. 19, 2017 Rise Set
Actual Time
Civil Twilight
Nautical Twilight
Astronomical Twilight
Moon
Length of Visible Light
Length of Day
Tomorrow will be .
, % of the Moon is Illuminated

Today's Extremes

Country Highs Country Lows

Community

WunderPhotos

Upload Photos

1,962,540 photos uploaded!

WunderBlog® & News

Nearby

Air Quality

  Air Quality AQ Index Pollutant
Not available.

Snow Depth

Station Depth Elevation

Earthquake Activity

City Distance Mag. Time & Date
Minimum magnitude displayed is 2.5.

Coastal Water Temperatures

Place Temperature

Stations

Nearby Weather Stations

Station Location Temp. Windchill Dew Point Humidity Wind Precip. Elev Updated Type